• Join FlightAware (Why Join?)
  • Login
  • US Flag 
02:22PM EDT


 

Airport Tracker/Info


-or-


 

Live Flight TrackerFlight Track Log ✈ GLA154 ✈ 15-Apr-2013 ✈ KIGM - KLAX

Flight Track Log - Related Links

Times and Time Zones

All times are in EDT time to prevent confusion due to time zone crossing. See the GLA154 flight status page for this flight to view local times or setup timezone preferences in your user account.

Time Position Orientation Groundspeed Altitude Reporting Facility
EDT Latitude Longitude Course Direction KTS MPH feet Rate Location/Type
10:22AM 35.1497 -114.0433 213° Southwest 170 196 8,200  Level Los Angeles Center
10:23AM 35.1097 -114.0814 218° Southwest 177 204 9,700 1,320 Climbing Los Angeles Center
10:25AM 35.0722 -114.1186 219° Southwest 174 200 11,000 1,260 Climbing Los Angeles Center
10:26AM 35.0364 -114.1658 227° Southwest 188 216 12,300 1,200 Climbing Los Angeles Center
10:27AM 35.0108 -114.2000 180° South  Level FlightAware Approximate
10:27AM 35.0258 -114.2281 258° West 187 215 13,600  Level Los Angeles Center
10:28AM 35.0133 -114.2933 257° West 195 224 14,400 900 Climbing Los Angeles Center
10:29AM 34.9978 -114.3750 257° West 206 237 15,500 960 Climbing Los Angeles Center
10:30AM 34.9872 -114.4439 259° West 206 237 16,400 780 Climbing Los Angeles Center
10:31AM 34.9742 -114.5139 257° West 210 242 17,200 720 Climbing Los Angeles Center
10:32AM 34.9631 -114.5844 259° West 211 243 17,900 720 Climbing Los Angeles Center
10:33AM 34.9539 -114.6561 261° West 213 245 18,800 780 Climbing Los Angeles Center
10:34AM 34.9464 -114.7294 263° West 217 250 19,500 540 Climbing Los Angeles Center
10:35AM 34.9406 -114.8028 264° West 218 251 20,000 240 Climbing Los Angeles Center
10:36AM 34.9358 -114.8803 266° West 227 261 20,000  Level Los Angeles Center
10:37AM 34.9303 -114.9703 266° West 221 254 20,000  Level Los Angeles Center
10:38AM 34.9281 -115.0436 268° West 217 250 20,000  Level Los Angeles Center
10:39AM 34.9214 -115.1161 264° West 215 247 20,000  Level Los Angeles Center
10:40AM 34.9153 -115.1900 264° West 217 250 20,100  Climbing Los Angeles Center
10:41AM 34.9086 -115.2636 264° West 219 252 20,000 -60 Descending Los Angeles Center
10:42AM 34.9022 -115.3375 264° West 219 252 20,000 -60 Level Los Angeles Center
10:43AM 34.8908 -115.4100 259° West 217 250 19,900  Descending Los Angeles Center
10:44AM 34.8822 -115.4828 262° West 216 249 20,100  Climbing Los Angeles Center
10:45AM 34.8744 -115.5636 263° West 226 260 20,000 -60 Descending Los Angeles Center
10:46AM 34.8706 -115.6383 266° West 223 257 20,000  Level Los Angeles Center
10:47AM 34.8658 -115.7117 266° West 220 253 20,100  Climbing Los Angeles Center
10:48AM 34.8581 -115.8003 264° West 220 253 20,100 -60 Level Los Angeles Center
10:49AM 34.8481 -115.8914 262° West 225 259 20,000 -60 Descending Los Angeles Center
10:50AM 34.8400 -115.9636 262° West 220 253 20,000  Level Los Angeles Center
10:51AM 34.8322 -116.0375 263° West 219 252 20,000  Level Los Angeles Center
10:52AM 34.8256 -116.1156 264° West 225 259 20,000 -60 Level Los Angeles Center
10:54AM 34.8181 -116.1942 263° West 231 266 19,900  Descending Los Angeles Center
10:55AM 34.8131 -116.2822 266° West 222 255 20,000  Climbing Los Angeles Center
10:56AM 34.8044 -116.3578 262° West 224 258 20,000  Level Los Angeles Center
10:57AM 34.7961 -116.4344 262° West 228 262 20,000  Level Los Angeles Center
10:58AM 34.7908 -116.5136 265° West 233 268 20,000  Level Los Angeles Center
10:59AM 34.7828 -116.5931 263° West 236 272 20,000  Level Los Angeles Center
11:00AM 34.7761 -116.6714 264° West 233 268 20,000  Level Los Angeles Center
11:01AM 34.7678 -116.7508 263° West 237 273 20,000  Level Los Angeles Center
11:02AM 34.7544 -116.8469 260° West 238 274 20,000 -60 Level Los Angeles Center
11:03AM 34.7372 -116.9278 255° West 246 283 19,900 -360 Descending Los Angeles Center
11:04AM 34.7289 -117.0069 263° West 238 274 19,300 -660 Descending Los Angeles Center
11:05AM 34.7211 -117.0872 263° West 239 275 18,600 -780 Descending Los Angeles Center
11:06AM 34.7111 -117.1661 261° West 237 273 17,800 -780 Descending Los Angeles Center
11:07AM 34.7067 -117.2450 266° West 235 270 17,000 -840 Descending Los Angeles Center
11:08AM 34.7036 -117.3400 268° West 233 268 16,100 -840 Descending Los Angeles Center
11:09AM 34.7006 -117.4183 267° West 232 267 15,300 -720 Descending Los Angeles Center
11:10AM 34.6956 -117.4964 266° West 232 267 14,700 -540 Descending Los Angeles Center
11:11AM 34.6858 -117.5739 261° West 232 267 14,200 -600 Descending Los Angeles Center
11:12AM 34.6736 -117.6517 259° West 234 269 13,500 -540 Descending Los Angeles Center
11:13AM 34.6639 -117.7306 262° West 236 272 13,100 -420 Descending Los Angeles Center
11:14AM 34.6539 -117.8078 261° West 232 267 12,700 -780 Descending Los Angeles Center
11:15AM 34.6439 -117.9056 263° West 239 275 11,500 -1,200 Descending Los Angeles Center
11:16AM 34.6375 -117.9878 265° West 248 285 10,200 -780 Descending Los Angeles Center
11:17AM 34.6211 -118.0639 255° West 248 285 9,900 -660 Descending Los Angeles Center
11:18AM 34.5794 -118.1272 231° Southwest 235 270 8,900 -1,020 Descending Los Angeles Center
11:19AM 34.5378 -118.2011 236° Southwest 245 282 7,900 -480 Descending Los Angeles Center
11:20AM 34.5017 -118.2647 235° Southwest 232 267 8,000  Climbing Los Angeles Center
11:21AM 34.4553 -118.3161 222° Southwest 249 287 8,000  Level Los Angeles Center
11:22AM 34.3819 -118.3208 183° South 262 302 8,000 -180 Level Los Angeles Center
11:24AM 34.2956 -118.3319 186° South 260 299 7,700 -480 Descending Los Angeles Center
11:25AM 34.2267 -118.2931 155° Southeast 275 316 7,100 -540 Descending Los Angeles Center
11:26AM 34.1628 -118.2519 152° Southeast 263 303 6,600 -1,020 Descending Los Angeles Center
11:27AM 34.1097 -118.2156 150° Southeast 225 259 5,100 -1,620 Descending Los Angeles Center
11:28AM 34.0722 -118.1628 131° Southeast 209 241 3,300 -1,200 Descending Los Angeles Center
11:29AM 34.0236 -118.1422 161° South 201 231 2,600 -540 Descending Los Angeles Center
11:30AM 33.9775 -118.1717 208° Southwest 193 222 2,200 -240 Descending Los Angeles Center
11:31AM 33.9700 -118.2294 261° West 183 211 2,200 -60 Level Los Angeles Center
11:32AM 33.9647 -118.2867 264° West 177 204 2,100 -480 Descending Los Angeles Center
11:33AM 33.9589 -118.3364 262° West 164 189 1,300 -660 Descending Los Angeles Center
11:34AM 33.9569 -118.3686 266° West 143 165 800 -600 Descending Los Angeles Center
11:35AM 33.9508 -118.4156 261° West 127 146 100 -720 Descending Los Angeles Center
11:37AM 33.9425 -118.4081 85° East  Level Estimated